sensor_id;sensor_type;location;lat;lon;timestamp;P1;durP1;ratioP1;P2;durP2;ratioP2
74855;SDS011;63407;53.018;8.690;2022-09-09T12:25:31;9.32;;;5.13;;
74855;SDS011;63407;53.018;8.690;2022-09-09T12:28:04;8.57;;;5.35;;
74855;SDS011;63407;53.018;8.690;2022-09-09T12:33:39;9.13;;;4.55;;
74855;SDS011;63407;53.018;8.690;2022-09-09T12:36:13;7.75;;;4.13;;
74855;SDS011;63407;53.018;8.690;2022-09-09T12:38:46;8.48;;;4.13;;
74855;SDS011;63407;53.018;8.690;2022-09-09T12:41:24;7.28;;;4.60;;
74855;SDS011;63407;53.018;8.690;2022-09-09T12:44:02;9.63;;;5.03;;
74855;SDS011;63407;53.018;8.690;2022-09-09T12:46:34;8.60;;;4.45;;
74855;SDS011;63407;53.018;8.690;2022-09-09T12:49:03;11.25;;;4.72;;
74855;SDS011;63407;53.018;8.690;2022-09-09T12:51:30;8.48;;;3.83;;
74855;SDS011;63407;53.018;8.690;2022-09-09T12:53:58;7.97;;;4.10;;
74855;SDS011;63407;53.018;8.690;2022-09-09T12:56:28;7.22;;;3.88;;
74855;SDS011;63407;53.018;8.690;2022-09-09T12:58:56;7.93;;;4.05;;
74855;SDS011;63407;53.018;8.690;2022-09-09T13:01:32;7.28;;;4.07;;
74855;SDS011;63407;53.018;8.690;2022-09-09T13:03:58;5.55;;;3.83;;
74855;SDS011;63407;53.018;8.690;2022-09-09T13:06:31;8.80;;;3.65;;
74855;SDS011;63407;53.018;8.690;2022-09-09T13:08:58;6.50;;;3.80;;
74855;SDS011;63407;53.018;8.690;2022-09-09T13:14:00;6.68;;;3.58;;
74855;SDS011;63407;53.018;8.690;2022-09-09T13:16:30;6.90;;;3.75;;
74855;SDS011;63407;53.018;8.690;2022-09-09T13:19:02;4.40;;;2.97;;
74855;SDS011;63407;53.018;8.690;2022-09-09T13:21:37;7.38;;;3.53;;
74855;SDS011;63407;53.018;8.690;2022-09-09T13:24:04;6.63;;;4.00;;
74855;SDS011;63407;53.018;8.690;2022-09-09T13:26:58;6.70;;;3.30;;
74855;SDS011;63407;53.018;8.690;2022-09-09T13:29:26;7.55;;;4.07;;
74855;SDS011;63407;53.018;8.690;2022-09-09T13:31:53;5.90;;;3.50;;
74855;SDS011;63407;53.018;8.690;2022-09-09T13:34:30;5.53;;;3.50;;
74855;SDS011;63407;53.018;8.690;2022-09-09T13:37:06;8.23;;;3.70;;
74855;SDS011;63407;53.018;8.690;2022-09-09T13:39:50;10.25;;;3.85;;
74855;SDS011;63407;53.018;8.690;2022-09-09T13:42:25;6.10;;;3.28;;
74855;SDS011;63407;53.018;8.690;2022-09-09T13:44:52;7.72;;;3.80;;
74855;SDS011;63407;53.018;8.690;2022-09-09T13:47:19;5.88;;;3.10;;
74855;SDS011;63407;53.018;8.690;2022-09-09T13:49:57;6.93;;;3.33;;
74855;SDS011;63407;53.018;8.690;2022-09-09T13:52:22;4.57;;;2.97;;
74855;SDS011;63407;53.018;8.690;2022-09-09T13:54:49;5.88;;;2.80;;
74855;SDS011;63407;53.018;8.690;2022-09-09T13:57:17;4.25;;;2.97;;
74855;SDS011;63407;53.018;8.690;2022-09-09T13:59:43;5.10;;;3.47;;
74855;SDS011;63407;53.018;8.690;2022-09-09T14:02:09;4.15;;;2.95;;
74855;SDS011;63407;53.018;8.690;2022-09-09T14:04:35;4.40;;;2.83;;
74855;SDS011;63407;53.018;8.690;2022-09-09T14:07:01;4.93;;;2.97;;
74855;SDS011;63407;53.018;8.690;2022-09-09T14:09:27;4.45;;;2.90;;
74855;SDS011;63407;53.018;8.690;2022-09-09T14:11:52;5.82;;;2.90;;
74855;SDS011;63407;53.018;8.690;2022-09-09T14:14:20;5.35;;;3.13;;
74855;SDS011;63407;53.018;8.690;2022-09-09T14:16:45;5.38;;;3.03;;
74855;SDS011;63407;53.018;8.690;2022-09-09T14:19:10;4.85;;;3.00;;
74855;SDS011;63407;53.018;8.690;2022-09-09T14:21:36;5.05;;;2.85;;
74855;SDS011;63407;53.018;8.690;2022-09-09T14:24:01;4.57;;;2.70;;
74855;SDS011;63407;53.018;8.690;2022-09-09T14:26:26;5.75;;;2.65;;
74855;SDS011;63407;53.018;8.690;2022-09-09T14:28:53;4.45;;;2.47;;
74855;SDS011;63407;53.018;8.690;2022-09-09T14:31:19;4.40;;;2.47;;
74855;SDS011;63407;53.018;8.690;2022-09-09T14:33:44;6.32;;;2.95;;
74855;SDS011;63407;53.018;8.690;2022-09-09T14:36:10;6.22;;;2.65;;
74855;SDS011;63407;53.018;8.690;2022-09-09T14:38:36;4.13;;;2.75;;
74855;SDS011;63407;53.018;8.690;2022-09-09T14:41:07;3.55;;;2.38;;
74855;SDS011;63407;53.018;8.690;2022-09-09T14:43:37;5.40;;;2.90;;
74855;SDS011;63407;53.018;8.690;2022-09-09T14:46:07;4.82;;;2.65;;
74855;SDS011;63407;53.018;8.690;2022-09-09T14:48:33;5.38;;;3.05;;
74855;SDS011;63407;53.018;8.690;2022-09-09T14:51:06;5.18;;;2.33;;
74855;SDS011;63407;53.018;8.690;2022-09-09T14:53:43;3.92;;;2.35;;
74855;SDS011;63407;53.018;8.690;2022-09-09T14:56:10;4.50;;;2.35;;
74855;SDS011;63407;53.018;8.690;2022-09-09T14:58:38;4.82;;;2.60;;
74855;SDS011;63407;53.018;8.690;2022-09-09T15:01:04;4.60;;;2.75;;
74855;SDS011;63407;53.018;8.690;2022-09-09T15:03:30;3.80;;;2.20;;
74855;SDS011;63407;53.018;8.690;2022-09-09T15:05:56;5.40;;;2.28;;
74855;SDS011;63407;53.018;8.690;2022-09-09T15:08:23;11.52;;;9.57;;
74855;SDS011;63407;53.018;8.690;2022-09-09T15:10:49;14.60;;;11.43;;
74855;SDS011;63407;53.018;8.690;2022-09-09T15:13:15;13.87;;;11.70;;
74855;SDS011;63407;53.018;8.690;2022-09-09T15:15:41;18.00;;;10.75;;
74855;SDS011;63407;53.018;8.690;2022-09-09T15:18:07;14.68;;;11.40;;
74855;SDS011;63407;53.018;8.690;2022-09-09T15:20:32;13.40;;;9.60;;
74855;SDS011;63407;53.018;8.690;2022-09-09T15:22:58;12.18;;;10.82;;
74855;SDS011;63407;53.018;8.690;2022-09-09T15:25:23;15.90;;;11.20;;
74855;SDS011;63407;53.018;8.690;2022-09-09T15:27:48;11.73;;;9.40;;
74855;SDS011;63407;53.018;8.690;2022-09-09T15:30:14;12.27;;;10.23;;
74855;SDS011;63407;53.018;8.690;2022-09-09T15:32:39;14.85;;;11.50;;
74855;SDS011;63407;53.018;8.690;2022-09-09T15:35:05;10.13;;;9.13;;
74855;SDS011;63407;53.018;8.690;2022-09-09T15:37:31;13.73;;;10.52;;
74855;SDS011;63407;53.018;8.690;2022-09-09T15:41:46;13.30;;;9.57;;
74855;SDS011;63407;53.018;8.690;2022-09-09T15:44:13;10.38;;;9.38;;
74855;SDS011;63407;53.018;8.690;2022-09-09T16:13:11;4.45;;;4.26;;
74855;SDS011;63407;53.018;8.690;2022-09-09T16:15:39;3.87;;;3.74;;
74855;SDS011;63407;53.018;8.690;2022-09-09T16:18:04;15.43;;;12.33;;
74855;SDS011;63407;53.018;8.690;2022-09-09T16:20:30;20.52;;;15.45;;
74855;SDS011;63407;53.018;8.690;2022-09-09T16:22:55;7.43;;;6.99;;
74855;SDS011;63407;53.018;8.690;2022-09-09T16:25:22;4.68;;;4.48;;
74855;SDS011;63407;53.018;8.690;2022-09-09T16:27:48;4.97;;;4.78;;
74855;SDS011;63407;53.018;8.690;2022-09-09T16:30:13;5.34;;;5.19;;
74855;SDS011;63407;53.018;8.690;2022-09-09T16:32:39;5.28;;;5.11;;
74855;SDS011;63407;53.018;8.690;2022-09-09T16:35:05;5.51;;;5.30;;
74855;SDS011;63407;53.018;8.690;2022-09-09T16:37:31;5.39;;;5.20;;
74855;SDS011;63407;53.018;8.690;2022-09-09T16:39:59;5.31;;;5.14;;
74855;SDS011;63407;53.018;8.690;2022-09-09T16:42:24;5.31;;;5.16;;
74855;SDS011;63407;53.018;8.690;2022-09-09T16:44:50;5.16;;;4.99;;
74855;SDS011;63407;53.018;8.690;2022-09-09T16:47:16;5.17;;;4.98;;
74855;SDS011;63407;53.018;8.690;2022-09-09T16:49:43;5.15;;;4.94;;
74855;SDS011;63407;53.018;8.690;2022-09-09T16:52:08;5.06;;;4.92;;
74855;SDS011;63407;53.018;8.690;2022-09-09T16:54:34;4.86;;;4.72;;
74855;SDS011;63407;53.018;8.690;2022-09-09T16:57:00;5.30;;;5.13;;
74855;SDS011;63407;53.018;8.690;2022-09-09T16:59:26;5.18;;;5.00;;
74855;SDS011;63407;53.018;8.690;2022-09-09T17:01:51;4.74;;;4.61;;
74855;SDS011;63407;53.018;8.690;2022-09-09T17:04:21;4.79;;;4.65;;
74855;SDS011;63407;53.018;8.690;2022-09-09T17:06:50;5.06;;;4.94;;
74855;SDS011;63407;53.018;8.690;2022-09-09T17:09:18;4.78;;;4.61;;
74855;SDS011;63407;53.018;8.690;2022-09-09T17:11:45;4.72;;;4.53;;
74855;SDS011;63407;53.018;8.690;2022-09-09T17:14:13;4.63;;;4.51;;
74855;SDS011;63407;53.018;8.690;2022-09-09T17:16:42;4.62;;;4.49;;
74855;SDS011;63407;53.018;8.690;2022-09-09T17:19:08;4.49;;;4.41;;
74855;SDS011;63407;53.018;8.690;2022-09-09T17:21:35;4.34;;;4.24;;
74855;SDS011;63407;53.018;8.690;2022-09-09T17:24:02;4.23;;;4.14;;
74855;SDS011;63407;53.018;8.690;2022-09-09T17:26:29;4.42;;;4.33;;
74855;SDS011;63407;53.018;8.690;2022-09-09T17:28:59;4.41;;;4.31;;
74855;SDS011;63407;53.018;8.690;2022-09-09T17:31:26;4.08;;;4.00;;
74855;SDS011;63407;53.018;8.690;2022-09-09T17:33:54;4.30;;;4.22;;
74855;SDS011;63407;53.018;8.690;2022-09-09T17:40:50;6.38;;;3.75;;
74855;SDS011;63407;53.018;8.690;2022-09-09T17:43:15;6.70;;;3.95;;
74855;SDS011;63407;53.018;8.690;2022-09-09T17:45:41;6.15;;;3.70;;
74855;SDS011;63407;53.018;8.690;2022-09-09T17:48:07;5.22;;;3.25;;
74855;SDS011;63407;53.018;8.690;2022-09-09T17:50:32;5.47;;;3.80;;
74855;SDS011;63407;53.018;8.690;2022-09-09T17:52:58;6.82;;;4.00;;
74855;SDS011;63407;53.018;8.690;2022-09-09T17:55:24;3.90;;;3.00;;
74855;SDS011;63407;53.018;8.690;2022-09-09T17:57:50;5.88;;;2.65;;
74855;SDS011;63407;53.018;8.690;2022-09-09T18:00:15;5.65;;;3.33;;
74855;SDS011;63407;53.018;8.690;2022-09-09T18:02:42;9.10;;;3.47;;
74855;SDS011;63407;53.018;8.690;2022-09-09T18:05:08;6.15;;;2.97;;
74855;SDS011;63407;53.018;8.690;2022-09-09T18:07:34;4.82;;;3.00;;
74855;SDS011;63407;53.018;8.690;2022-09-09T18:09:59;6.55;;;3.50;;
74855;SDS011;63407;53.018;8.690;2022-09-09T18:12:25;7.28;;;3.33;;
74855;SDS011;63407;53.018;8.690;2022-09-09T18:14:51;5.18;;;3.13;;
74855;SDS011;63407;53.018;8.690;2022-09-09T18:17:18;5.85;;;3.35;;
74855;SDS011;63407;53.018;8.690;2022-09-09T18:19:43;6.07;;;3.15;;
74855;SDS011;63407;53.018;8.690;2022-09-09T18:22:09;5.88;;;3.47;;
74855;SDS011;63407;53.018;8.690;2022-09-09T18:24:34;4.93;;;2.80;;
74855;SDS011;63407;53.018;8.690;2022-09-09T18:27:00;6.65;;;3.05;;
74855;SDS011;63407;53.018;8.690;2022-09-09T18:29:26;6.53;;;3.17;;
74855;SDS011;63407;53.018;8.690;2022-09-09T18:31:52;4.15;;;2.97;;
74855;SDS011;63407;53.018;8.690;2022-09-09T18:34:19;7.13;;;3.22;;
74855;SDS011;63407;53.018;8.690;2022-09-09T18:36:47;5.75;;;2.88;;
74855;SDS011;63407;53.018;8.690;2022-09-09T18:39:19;6.35;;;2.97;;
74855;SDS011;63407;53.018;8.690;2022-09-09T18:41:47;4.57;;;2.75;;
74855;SDS011;63407;53.018;8.690;2022-09-09T18:44:18;4.22;;;2.92;;
74855;SDS011;63407;53.018;8.690;2022-09-09T18:46:46;3.50;;;2.47;;
74855;SDS011;63407;53.018;8.690;2022-09-09T18:49:12;5.15;;;2.90;;
74855;SDS011;63407;53.018;8.690;2022-09-09T18:51:39;4.22;;;2.25;;
74855;SDS011;63407;53.018;8.690;2022-09-09T18:54:11;5.72;;;2.55;;
74855;SDS011;63407;53.018;8.690;2022-09-09T18:56:38;5.93;;;2.92;;
74855;SDS011;63407;53.018;8.690;2022-09-09T18:59:05;6.18;;;2.42;;
74855;SDS011;63407;53.018;8.690;2022-09-09T19:01:32;5.25;;;2.50;;
74855;SDS011;63407;53.018;8.690;2022-09-09T19:03:59;4.10;;;2.60;;
74855;SDS011;63407;53.018;8.690;2022-09-09T19:06:26;4.75;;;2.30;;
74855;SDS011;63407;53.018;8.690;2022-09-09T19:08:55;5.00;;;2.90;;
74855;SDS011;63407;53.018;8.690;2022-09-09T19:11:23;6.30;;;2.33;;
74855;SDS011;63407;53.018;8.690;2022-09-09T19:13:50;4.18;;;2.58;;
74855;SDS011;63407;53.018;8.690;2022-09-09T19:16:21;4.35;;;2.50;;
74855;SDS011;63407;53.018;8.690;2022-09-09T19:18:48;4.00;;;2.08;;
74855;SDS011;63407;53.018;8.690;2022-09-09T19:21:20;2.58;;;2.05;;
74855;SDS011;63407;53.018;8.690;2022-09-09T19:26:21;4.25;;;2.03;;
74855;SDS011;63407;53.018;8.690;2022-09-09T19:28:46;4.10;;;2.10;;
74855;SDS011;63407;53.018;8.690;2022-09-09T19:31:14;4.50;;;2.85;;
74855;SDS011;63407;53.018;8.690;2022-09-09T19:33:42;3.97;;;2.63;;
74855;SDS011;63407;53.018;8.690;2022-09-09T19:36:12;2.92;;;2.20;;
74855;SDS011;63407;53.018;8.690;2022-09-09T19:38:41;5.45;;;2.45;;
74855;SDS011;63407;53.018;8.690;2022-09-09T19:41:08;3.83;;;1.90;;
74855;SDS011;63407;53.018;8.690;2022-09-09T19:43:35;3.85;;;2.55;;
74855;SDS011;63407;53.018;8.690;2022-09-09T19:46:03;3.78;;;2.08;;
74855;SDS011;63407;53.018;8.690;2022-09-09T19:48:31;3.85;;;2.10;;
74855;SDS011;63407;53.018;8.690;2022-09-09T19:51:04;4.43;;;2.08;;
74855;SDS011;63407;53.018;8.690;2022-09-09T19:53:36;2.85;;;1.90;;
74855;SDS011;63407;53.018;8.690;2022-09-09T19:56:03;3.42;;;2.03;;
74855;SDS011;63407;53.018;8.690;2022-09-09T19:58:30;3.60;;;2.15;;
74855;SDS011;63407;53.018;8.690;2022-09-09T20:01:08;3.38;;;2.22;;
74855;SDS011;63407;53.018;8.690;2022-09-09T20:03:38;3.17;;;2.00;;
74855;SDS011;63407;53.018;8.690;2022-09-09T20:06:05;4.50;;;2.35;;
74855;SDS011;63407;53.018;8.690;2022-09-09T20:08:36;3.88;;;2.00;;
74855;SDS011;63407;53.018;8.690;2022-09-09T20:11:03;3.08;;;1.77;;
74855;SDS011;63407;53.018;8.690;2022-09-09T20:13:32;3.67;;;2.40;;
74855;SDS011;63407;53.018;8.690;2022-09-09T20:16:00;5.10;;;2.20;;
74855;SDS011;63407;53.018;8.690;2022-09-09T20:18:31;3.95;;;1.90;;
74855;SDS011;63407;53.018;8.690;2022-09-09T20:20:59;3.42;;;2.22;;
74855;SDS011;63407;53.018;8.690;2022-09-09T20:23:27;3.13;;;2.10;;
74855;SDS011;63407;53.018;8.690;2022-09-09T20:25:53;3.10;;;2.00;;
74855;SDS011;63407;53.018;8.690;2022-09-09T20:28:19;2.63;;;1.60;;
74855;SDS011;63407;53.018;8.690;2022-09-09T20:30:46;3.63;;;1.90;;
74855;SDS011;63407;53.018;8.690;2022-09-09T20:33:12;3.13;;;2.00;;
74855;SDS011;63407;53.018;8.690;2022-09-09T20:35:39;2.85;;;1.90;;
74855;SDS011;63407;53.018;8.690;2022-09-09T20:38:05;3.60;;;1.58;;
74855;SDS011;63407;53.018;8.690;2022-09-09T20:40:34;2.53;;;1.80;;
74855;SDS011;63407;53.018;8.690;2022-09-09T20:43:01;1.63;;;1.52;;
74855;SDS011;63407;53.018;8.690;2022-09-09T20:45:28;3.47;;;1.50;;
74855;SDS011;63407;53.018;8.690;2022-09-09T20:48:03;2.33;;;1.80;;
74855;SDS011;63407;53.018;8.690;2022-09-09T20:50:33;3.30;;;1.60;;
74855;SDS011;63407;53.018;8.690;2022-09-09T20:53:03;1.85;;;1.50;;
74855;SDS011;63407;53.018;8.690;2022-09-09T20:55:29;1.83;;;1.35;;
74855;SDS011;63407;53.018;8.690;2022-09-09T20:57:56;2.35;;;1.52;;
